Accueil
METAR-TAF:

METAR-TAF

Aéroports :

Padoue, Italie

latitude: 45-23-45N, longitude: 11-50-53E, altitude: 13 m

Observation

Le bulletin a été fait il y a 16 heures et 10 minutes, à 13:00 UTC
Vent 6 kt de nord, variant entre nord/nord-ouest et nord-est
Température 21°C
Humidité 78%
Pression 1010 hPa
Visibilité 10 km ou plus
Nuages fragmentés à une hauteur de 1500 ft
pluie

METAR: LIPU 191300Z 36006KT 330V050 9999 RA BKN015 21/17 Q1010

Heure: 07:10 (05:10 UTC)


TAF: absent

Observations et prévisions météorologiques de plus de 4000 aéroports (messages METAR et TAF).

Les stations disponibles sont représentées par des disques jaunes et rouges sur la carte.

Passer la souris dessus pour voir le nom de la station.

Cliquer dessus pour voir les observations et prévisions météorologiques.

Pour changer de carte: cliquez sur les boutons verts avec une croix noire pour zoomer, sur le bouton vert avec un tiret pour effectuer un zoom arrière, ou sur les flèches vertes pour les cartes adjacentes.


METAR-TAF: